Terminal Aerodrome Forecast
Issued by NWS

Current Version | Previous Version | Graphics & Text | Print | Product List | Glossary On
Versions: 1 2 3 4 5 6 7 8 9 10 11 12 13 14 15 16
000
FTUS41 KPBZ 242320
TAFHLG
TAF
KHLG 242320Z 2500/2524 36005KT P6SM SCT150
     FM251000 07005KT P6SM BKN080
     FM252100 09005KT 5SM -SHRA OVC030=

USA.gov is the U.S. government's official web portal to all federal, state and local government web resources and services.